createdAt,value
2019-04-29T00:02:33.350Z,68.31
2019-04-29T00:05:03.520Z,68.02
2019-04-29T00:07:33.554Z,67.59
2019-04-29T00:10:03.811Z,67.90
2019-04-29T00:12:34.234Z,67.62
2019-04-29T00:15:16.398Z,67.26
2019-04-29T00:17:50.800Z,67.08
2019-04-29T00:20:28.641Z,67.23
2019-04-29T00:22:58.460Z,67.52
2019-04-29T00:25:28.480Z,67.33
2019-04-29T00:27:58.300Z,67.73
2019-04-29T00:30:28.268Z,67.28
2019-04-29T00:32:58.252Z,67.11
2019-04-29T00:35:28.249Z,67.17
2019-04-29T00:38:18.303Z,67.02
2019-04-29T00:41:10.209Z,67.16
2019-04-29T00:43:44.988Z,67.48
2019-04-29T00:46:14.961Z,67.46
2019-04-29T00:48:44.869Z,67.79
2019-04-29T00:51:14.776Z,67.55
2019-04-29T00:53:45.825Z,67.84
2019-04-29T00:56:15.815Z,67.77
2019-04-29T00:58:45.709Z,67.53
2019-04-29T01:01:20.373Z,67.95
2019-04-29T01:03:50.261Z,68.04
2019-04-29T01:06:20.249Z,68.37
2019-04-29T01:08:50.234Z,68.95
2019-04-29T01:11:20.615Z,67.63
2019-04-29T01:13:50.592Z,66.68
2019-04-29T01:16:20.602Z,66.25
2019-04-29T01:18:50.449Z,66.71
2019-04-29T01:21:20.442Z,66.18
2019-04-29T01:23:50.346Z,66.76
2019-04-29T01:26:57.716Z,66.04
2019-04-29T01:29:28.301Z,66.35
2019-04-29T01:31:58.385Z,67.83
2019-04-29T01:34:36.495Z,67.13
2019-04-29T01:37:06.507Z,67.42
2019-04-29T01:39:42.541Z,67.53
2019-04-29T01:42:35.452Z,66.58
2019-04-29T01:45:06.655Z,66.57
2019-04-29T01:47:36.481Z,67.00
2019-04-29T01:50:06.564Z,67.42
2019-04-29T01:52:36.446Z,67.26
2019-04-29T01:55:06.422Z,68.19
2019-04-29T01:57:36.234Z,68.45
2019-04-29T02:00:08.040Z,67.98
2019-04-29T02:02:37.992Z,67.69
2019-04-29T02:05:08.106Z,67.34
2019-04-29T02:07:37.936Z,67.24
2019-04-29T02:10:23.089Z,67.61
2019-04-29T02:12:52.967Z,68.82
2019-04-29T02:15:41.868Z,71.67
2019-04-29T02:18:11.704Z,73.38
2019-04-29T02:20:41.618Z,72.14
2019-04-29T02:23:16.931Z,72.19
2019-04-29T02:25:47.412Z,70.71
2019-04-29T02:28:17.317Z,71.79
2019-04-29T02:30:49.734Z,71.54
2019-04-29T02:33:19.618Z,72.27
2019-04-29T02:35:49.529Z,73.14
2019-04-29T02:38:38.515Z,73.13
2019-04-29T02:41:15.454Z,73.32
2019-04-29T02:43:47.205Z,71.38
2019-04-29T02:46:17.102Z,70.09
2019-04-29T02:48:47.094Z,71.26
2019-04-29T02:51:35.986Z,72.12
2019-04-29T02:54:06.023Z,72.30
2019-04-29T02:56:36.039Z,72.40
2019-04-29T02:59:06.719Z,71.27
2019-04-29T03:02:13.988Z,70.36
2019-04-29T03:05:01.704Z,70.38
2019-04-29T03:07:31.758Z,70.75
2019-04-29T03:10:01.644Z,69.78
2019-04-29T03:12:31.850Z,69.68
2019-04-29T03:15:01.872Z,69.04
2019-04-29T03:17:31.960Z,68.83
2019-04-29T03:20:17.017Z,69.46
2019-04-29T03:22:47.028Z,69.84
2019-04-29T03:25:16.928Z,69.72
2019-04-29T03:27:46.919Z,69.59
2019-04-29T03:30:16.930Z,69.34
2019-04-29T03:32:46.853Z,69.23
2019-04-29T03:35:16.632Z,69.09
2019-04-29T03:37:46.616Z,69.50
2019-04-29T03:40:16.616Z,69.64
2019-04-29T03:42:46.464Z,69.59
2019-04-29T03:45:16.409Z,70.18
2019-04-29T03:47:46.392Z,70.17
2019-04-29T03:50:16.362Z,70.03
2019-04-29T03:52:46.163Z,70.30
2019-04-29T03:55:16.982Z,70.15
2019-04-29T03:57:48.125Z,69.99
2019-04-29T04:00:18.884Z,70.65
2019-04-29T04:02:55.773Z,71.11
2019-04-29T04:05:53.584Z,70.66
2019-04-29T04:08:33.872Z,69.32
2019-04-29T04:11:03.779Z,68.38
2019-04-29T04:13:33.678Z,68.35
2019-04-29T04:16:04.441Z,68.22
2019-04-29T04:18:35.071Z,67.98
2019-04-29T04:21:05.041Z,68.51
2019-04-29T04:23:34.926Z,69.11
2019-04-29T04:26:04.897Z,68.85
2019-04-29T04:28:34.809Z,68.02
2019-04-29T04:31:06.921Z,68.24
2019-04-29T04:33:36.348Z,68.51
2019-04-29T04:36:07.235Z,68.92
2019-04-29T04:38:37.249Z,68.76
2019-04-29T04:41:09.319Z,68.73
2019-04-29T04:43:39.286Z,67.80
2019-04-29T04:46:10.232Z,67.87
2019-04-29T04:48:40.132Z,67.10
2019-04-29T04:51:09.974Z,68.59
2019-04-29T04:53:39.799Z,68.02
2019-04-29T04:56:09.710Z,67.90
2019-04-29T04:58:39.615Z,67.16
2019-04-29T05:01:09.593Z,66.71
2019-04-29T05:03:39.566Z,68.09
2019-04-29T05:06:09.473Z,68.99
2019-04-29T05:08:39.330Z,70.41
2019-04-29T05:11:09.301Z,69.69
2019-04-29T05:13:39.227Z,70.10
2019-04-29T05:16:09.135Z,69.12
2019-04-29T05:18:38.958Z,69.50
2019-04-29T05:21:08.847Z,71.21
2019-04-29T05:23:41.512Z,69.73
2019-04-29T05:26:10.380Z,69.61
2019-04-29T05:28:40.208Z,68.36
2019-04-29T05:31:10.222Z,69.47
2019-04-29T05:33:40.119Z,69.28
2019-04-29T05:36:21.366Z,69.08
2019-04-29T05:38:54.517Z,68.37
2019-04-29T05:41:25.977Z,67.33
2019-04-29T05:44:11.037Z,67.67
2019-04-29T05:46:47.681Z,67.45
2019-04-29T05:49:21.667Z,67.42
2019-04-29T05:52:06.182Z,67.71
2019-04-29T05:54:36.158Z,67.87
2019-04-29T05:57:06.173Z,68.05
2019-04-29T05:59:35.989Z,68.12
2019-04-29T06:02:05.971Z,67.75
2019-04-29T06:04:36.047Z,66.32
2019-04-29T06:07:06.082Z,67.72
2019-04-29T06:09:35.959Z,67.45
2019-04-29T06:12:05.881Z,66.53
2019-04-29T06:14:35.867Z,65.37
2019-04-29T06:17:07.804Z,63.79
2019-04-29T06:19:39.212Z,65.24
2019-04-29T06:22:09.185Z,66.59
2019-04-29T06:24:41.026Z,67.26
2019-04-29T06:27:10.692Z,68.29
2019-04-29T06:29:40.588Z,69.48
2019-04-29T06:32:10.558Z,69.00
2019-04-29T06:34:41.793Z,67.07
2019-04-29T06:37:11.899Z,66.79
2019-04-29T06:39:41.792Z,66.46
2019-04-29T06:42:15.559Z,66.44
2019-04-29T06:44:44.504Z,66.99
2019-04-29T06:47:16.980Z,66.46
2019-04-29T06:49:46.580Z,64.96
2019-04-29T06:52:16.477Z,63.19
2019-04-29T06:54:46.466Z,64.03
2019-04-29T06:57:16.286Z,65.13
2019-04-29T06:59:47.541Z,64.80
2019-04-29T07:02:17.772Z,63.67
2019-04-29T07:04:47.755Z,65.16
2019-04-29T07:07:17.574Z,65.00
2019-04-29T07:09:47.399Z,65.75
2019-04-29T07:12:17.378Z,66.44
2019-04-29T07:14:47.366Z,66.22
2019-04-29T07:17:17.373Z,65.71
2019-04-29T07:19:47.265Z,66.92
2019-04-29T07:22:20.920Z,67.62
2019-04-29T07:24:49.917Z,66.03
2019-04-29T07:27:19.825Z,66.61
2019-04-29T07:29:49.829Z,66.64
2019-04-29T07:32:19.754Z,64.31
2019-04-29T07:34:49.646Z,63.79
2019-04-29T07:37:19.541Z,64.54
2019-04-29T07:39:49.483Z,64.16
2019-04-29T07:42:19.545Z,63.70
2019-04-29T07:45:07.311Z,63.09
2019-04-29T07:47:38.115Z,62.95
2019-04-29T07:50:09.031Z,62.79
2019-04-29T07:52:39.066Z,60.81
2019-04-29T07:55:09.380Z,64.07
2019-04-29T07:57:39.290Z,64.76
2019-04-29T08:00:12.887Z,62.85
2019-04-29T08:02:41.997Z,63.18
2019-04-29T08:05:12.072Z,63.50
2019-04-29T08:07:42.549Z,62.42
2019-04-29T08:10:23.187Z,64.04
2019-04-29T08:12:45.126Z,63.58
2019-04-29T08:15:15.497Z,66.52
2019-04-29T08:17:45.540Z,64.80
2019-04-29T08:20:17.178Z,65.59
2019-04-29T08:22:47.172Z,65.88
2019-04-29T08:25:17.228Z,66.47
2019-04-29T08:27:47.138Z,66.65
2019-04-29T08:30:18.339Z,67.71
2019-04-29T08:32:48.410Z,67.26
2019-04-29T08:35:18.213Z,68.11
2019-04-29T08:37:48.104Z,67.90
2019-04-29T08:40:18.761Z,66.79
2019-04-29T08:42:58.042Z,68.33
2019-04-29T08:45:39.009Z,67.16
2019-04-29T08:48:07.039Z,67.43
2019-04-29T08:50:37.062Z,68.08
2019-04-29T08:53:07.063Z,67.51
2019-04-29T08:55:37.110Z,67.80
2019-04-29T08:58:11.066Z,67.87
2019-04-29T09:00:38.599Z,66.26
2019-04-29T09:03:08.535Z,65.28
2019-04-29T09:05:41.701Z,65.04
2019-04-29T09:08:13.238Z,62.72
2019-04-29T09:10:41.751Z,65.69
2019-04-29T09:13:11.762Z,65.90
2019-04-29T09:15:41.748Z,68.06
2019-04-29T09:18:11.618Z,66.29
2019-04-29T09:20:41.924Z,67.08
2019-04-29T09:23:14.086Z,65.04
2019-04-29T09:26:06.471Z,65.00
2019-04-29T09:28:36.336Z,64.75
2019-04-29T09:31:06.326Z,62.28
2019-04-29T09:33:36.331Z,61.80
2019-04-29T09:36:09.630Z,61.22
2019-04-29T09:38:38.440Z,61.41
2019-04-29T09:41:36.686Z,60.09
2019-04-29T09:44:21.629Z,62.32
2019-04-29T09:46:51.493Z,64.18
2019-04-29T09:49:21.334Z,64.13
2019-04-29T09:51:51.174Z,64.26
2019-04-29T09:54:21.158Z,65.57
2019-04-29T09:56:51.163Z,68.00
2019-04-29T09:59:38.648Z,69.15
2019-04-29T10:02:31.235Z,70.08
2019-04-29T10:05:20.904Z,72.24
2019-04-29T10:07:50.843Z,75.46
2019-04-29T10:10:20.827Z,77.66
2019-04-29T10:12:53.788Z,77.59
2019-04-29T10:15:29.430Z,80.28
2019-04-29T10:18:14.996Z,79.24
2019-04-29T10:20:50.514Z,77.72
2019-04-29T10:23:20.431Z,78.13
2019-04-29T10:25:50.251Z,78.59
2019-04-29T10:28:20.157Z,76.57
2019-04-29T10:30:50.244Z,76.68
2019-04-29T10:33:23.058Z,74.44
2019-04-29T10:35:52.334Z,73.02
2019-04-29T10:38:22.317Z,71.99
2019-04-29T10:41:23.188Z,70.74
2019-04-29T10:44:04.830Z,68.39
2019-04-29T10:47:11.987Z,68.68
2019-04-29T10:49:49.813Z,70.44
2019-04-29T10:52:20.073Z,69.74
2019-04-29T10:54:51.159Z,69.74
2019-04-29T10:57:24.029Z,70.50
2019-04-29T11:00:00.997Z,72.64
2019-04-29T11:02:37.684Z,75.35
2019-04-29T11:05:44.540Z,76.60
2019-04-29T11:08:33.822Z,78.27
2019-04-29T11:11:02.694Z,79.33
2019-04-29T11:13:32.718Z,80.01
2019-04-29T11:16:03.886Z,80.96
2019-04-29T11:18:34.007Z,78.85
2019-04-29T11:21:04.468Z,77.18
2019-04-29T11:23:56.860Z,76.43
2019-04-29T11:26:50.035Z,77.30
2019-04-29T11:29:22.091Z,76.31
2019-04-29T11:31:54.030Z,77.21
2019-04-29T11:35:01.807Z,76.22
2019-04-29T11:37:33.251Z,74.14
2019-04-29T11:40:03.567Z,73.66
2019-04-29T11:42:36.410Z,72.67
2019-04-29T11:45:08.363Z,73.60
2019-04-29T11:47:38.342Z,74.23
2019-04-29T11:50:30.901Z,74.43
2019-04-29T11:53:00.924Z,76.49
2019-04-29T11:55:31.800Z,77.83
2019-04-29T11:58:07.220Z,76.53
2019-04-29T12:00:56.129Z,77.37
2019-04-29T12:03:30.263Z,75.49
2019-04-29T12:06:02.555Z,74.11
2019-04-29T12:08:32.424Z,71.85
2019-04-29T12:11:07.254Z,70.00
2019-04-29T12:13:47.052Z,73.19
2019-04-29T12:16:26.381Z,74.49
2019-04-29T12:19:01.597Z,72.46
2019-04-29T12:21:33.472Z,71.89
2019-04-29T12:24:04.413Z,69.67
2019-04-29T12:26:35.598Z,69.42
2019-04-29T12:29:06.112Z,67.91
2019-04-29T12:32:04.029Z,67.15
2019-04-29T12:34:48.079Z,69.56
2019-04-29T12:37:37.063Z,69.29
2019-04-29T12:40:45.514Z,68.36
2019-04-29T12:43:27.395Z,68.17
2019-04-29T12:46:10.581Z,68.11
2019-04-29T12:48:40.452Z,69.20
2019-04-29T12:51:10.460Z,69.11
2019-04-29T12:53:40.354Z,68.75
2019-04-29T12:56:11.363Z,70.26
2019-04-29T12:58:41.587Z,71.11
2019-04-29T13:01:51.087Z,70.52
2019-04-29T13:04:29.473Z,71.26
2019-04-29T13:07:21.674Z,69.09
2019-04-29T13:09:53.012Z,67.81
2019-04-29T13:12:22.914Z,66.54
2019-04-29T13:15:33.233Z,66.66
2019-04-29T13:18:13.033Z,66.59
2019-04-29T13:20:41.577Z,65.95
2019-04-29T13:23:17.699Z,66.46
2019-04-29T13:25:41.734Z,65.13
2019-04-29T13:28:11.741Z,65.48
2019-04-29T13:30:43.374Z,65.36
2019-04-29T13:33:16.506Z,66.40
2019-04-29T13:35:48.334Z,67.58
2019-04-29T13:38:17.033Z,68.63
2019-04-29T13:40:46.967Z,73.83
2019-04-29T13:43:20.831Z,77.04
2019-04-29T13:45:59.138Z,76.65
2019-04-29T13:49:13.218Z,76.10
2019-04-29T13:51:38.782Z,76.65
2019-04-29T13:54:08.760Z,76.16
2019-04-29T13:56:55.723Z,72.63
2019-04-29T13:59:12.603Z,75.41
2019-04-29T14:02:01.438Z,73.20
2019-04-29T14:04:31.304Z,74.15
2019-04-29T14:07:01.238Z,74.68
2019-04-29T14:09:35.151Z,72.60
2019-04-29T14:12:42.329Z,73.43
2019-04-29T14:14:35.004Z,73.64
2019-04-29T14:17:24.099Z,71.43
2019-04-29T14:19:42.303Z,71.58
2019-04-29T14:22:21.407Z,72.30
2019-04-29T14:24:40.630Z,69.94
2019-04-29T14:27:23.657Z,71.40
2019-04-29T14:29:42.140Z,69.65
2019-04-29T14:32:12.000Z,71.09
2019-04-29T14:34:48.104Z,70.03
2019-04-29T14:37:23.509Z,69.96
2019-04-29T14:39:49.624Z,68.97
2019-04-29T14:42:58.311Z,71.24
2019-04-29T14:45:33.842Z,69.32
2019-04-29T14:48:22.327Z,69.08
2019-04-29T14:50:54.045Z,68.21
2019-04-29T14:53:26.310Z,68.79
2019-04-29T14:55:56.671Z,70.19
2019-04-29T14:58:26.568Z,71.27
2019-04-29T15:01:27.595Z,71.52
2019-04-29T15:04:00.079Z,71.39
2019-04-29T15:06:30.129Z,70.84
2019-04-29T15:09:00.566Z,72.46
2019-04-29T15:11:51.038Z,74.44
2019-04-29T15:15:00.438Z,74.88
2019-04-29T15:17:47.612Z,73.95
2019-04-29T15:20:35.414Z,75.26
2019-04-29T15:23:06.696Z,75.24
2019-04-29T15:25:36.699Z,75.28
2019-04-29T15:28:06.645Z,76.49
2019-04-29T15:30:37.314Z,75.23
2019-04-29T15:33:08.198Z,76.09
2019-04-29T15:35:38.222Z,76.83
2019-04-29T15:38:08.205Z,77.48
2019-04-29T15:40:43.053Z,75.14
2019-04-29T15:43:09.927Z,74.30
2019-04-29T15:45:40.658Z,74.88
2019-04-29T15:48:10.786Z,75.71
2019-04-29T15:50:40.635Z,75.17
2019-04-29T15:53:10.620Z,76.08
2019-04-29T15:55:41.335Z,77.29
2019-04-29T15:58:12.674Z,76.35
2019-04-29T16:00:42.888Z,75.67
2019-04-29T16:06:19.909Z,76.01
2019-04-29T16:08:59.119Z,76.87
2019-04-29T16:11:52.560Z,74.61
2019-04-29T16:14:23.779Z,77.01
2019-04-29T16:16:53.655Z,78.63
2019-04-29T16:19:23.649Z,78.52
2019-04-29T16:21:53.482Z,78.79
2019-04-29T16:24:26.709Z,78.95
2019-04-29T16:26:54.969Z,79.95
2019-04-29T16:29:24.899Z,79.90
2019-04-29T16:32:01.398Z,80.90
2019-04-29T16:34:26.367Z,80.03
2019-04-29T16:36:56.215Z,79.73
2019-04-29T16:39:26.338Z,80.87
2019-04-29T16:42:18.217Z,80.65
2019-04-29T16:44:48.292Z,80.92
2019-04-29T16:47:18.110Z,80.32
2019-04-29T16:49:48.195Z,80.94
2019-04-29T16:52:18.038Z,80.90
2019-04-29T16:54:47.949Z,81.54
2019-04-29T16:57:17.865Z,80.53
2019-04-29T16:59:47.680Z,80.66
2019-04-29T17:02:19.593Z,79.39
2019-04-29T17:04:49.349Z,80.43
2019-04-29T17:07:20.365Z,80.73
2019-04-29T17:10:08.735Z,81.19
2019-04-29T17:12:42.739Z,81.82
2019-04-29T17:15:24.166Z,81.74
2019-04-29T17:17:44.363Z,81.78
2019-04-29T17:20:14.854Z,82.79
2019-04-29T17:22:44.958Z,83.80
2019-04-29T17:25:15.594Z,83.19
2019-04-29T17:27:57.935Z,83.49
2019-04-29T17:30:48.999Z,83.58
2019-04-29T17:33:38.598Z,83.43
2019-04-29T17:35:15.456Z,74.87
2019-04-29T17:36:09.328Z,83.98
2019-04-29T17:38:39.285Z,83.39
2019-04-29T17:41:09.339Z,84.13
2019-04-29T17:44:03.169Z,85.17
2019-04-29T17:46:55.061Z,85.24
2019-04-29T17:49:31.274Z,85.03
2019-04-29T17:52:02.805Z,85.13
2019-04-29T17:54:37.644Z,85.62
2019-04-29T17:57:26.540Z,85.24
2019-04-29T18:00:08.579Z,84.25
2019-04-29T18:02:57.346Z,84.44
2019-04-29T18:05:53.019Z,84.37
2019-04-29T18:08:19.594Z,85.30
2019-04-29T18:10:52.875Z,85.55
2019-04-29T18:13:24.591Z,86.00
2019-04-29T18:16:01.674Z,85.87
2019-04-29T18:18:48.965Z,85.88
2019-04-29T18:21:47.324Z,86.40
2019-04-29T18:24:39.522Z,85.33
2019-04-29T18:27:15.121Z,86.13
2019-04-29T18:29:45.821Z,85.86
2019-04-29T18:32:15.851Z,85.96
2019-04-29T18:34:45.896Z,85.86
2019-04-29T18:37:16.801Z,85.88
2019-04-29T18:39:46.911Z,85.98
2019-04-29T18:42:16.887Z,85.77
2019-04-29T18:44:55.890Z,85.42
2019-04-29T18:47:22.649Z,86.02
2019-04-29T18:49:50.088Z,85.98
2019-04-29T18:52:25.948Z,85.94
2019-04-29T18:54:51.808Z,85.97
2019-04-29T18:57:28.620Z,86.24
2019-04-29T18:59:54.948Z,86.21
2019-04-29T19:02:27.117Z,86.36
2019-04-29T19:05:17.325Z,86.78
2019-04-29T19:07:55.113Z,86.36
2019-04-29T19:10:19.619Z,86.73
2019-04-29T19:12:59.462Z,86.82
2019-04-29T19:15:21.311Z,86.78
2019-04-29T19:17:59.114Z,86.13
2019-04-29T19:20:25.012Z,86.07
2019-04-29T19:23:05.464Z,85.83
2019-04-29T19:25:25.939Z,85.86
2019-04-29T19:27:56.956Z,85.87
2019-04-29T19:30:29.281Z,85.99
2019-04-29T19:33:00.241Z,85.97
2019-04-29T19:35:34.570Z,85.51
2019-04-29T19:38:01.788Z,85.50
2019-04-29T19:40:38.940Z,85.68
2019-04-29T19:43:03.406Z,85.56
2019-04-29T19:45:33.318Z,85.55
2019-04-29T19:48:03.309Z,86.15
2019-04-29T19:50:33.230Z,85.83
2019-04-29T19:53:04.973Z,85.51
2019-04-29T19:55:41.833Z,86.05
2019-04-29T19:58:08.060Z,85.65
2019-04-29T20:00:39.401Z,85.67
2019-04-29T20:03:22.935Z,85.33
2019-04-29T20:05:46.811Z,85.12
2019-04-29T20:08:41.255Z,86.02
2019-04-29T20:10:51.396Z,85.44
2019-04-29T20:13:20.963Z,85.85
2019-04-29T20:16:24.828Z,86.82
2019-04-29T20:19:02.797Z,86.50
2019-04-29T20:21:36.394Z,86.98
2019-04-29T20:24:09.372Z,87.17
2019-04-29T20:26:38.417Z,87.10
2019-04-29T20:29:08.529Z,86.84
2019-04-29T20:31:39.082Z,86.88
2019-04-29T20:34:10.175Z,86.96
2019-04-29T20:36:42.916Z,86.63
2019-04-29T20:39:18.305Z,87.06
2019-04-29T20:41:47.032Z,87.01
2019-04-29T20:44:16.339Z,86.87
2019-04-29T20:47:12.744Z,86.38
2019-04-29T20:49:18.236Z,86.38
2019-04-29T20:51:52.379Z,86.02
2019-04-29T20:54:25.429Z,86.19
2019-04-29T20:57:02.794Z,85.63
2019-04-29T20:59:27.246Z,85.54
2019-04-29T21:02:11.238Z,86.03
2019-04-29T21:04:39.190Z,85.69
2019-04-29T21:07:04.080Z,85.74
2019-04-29T21:09:35.640Z,86.20
2019-04-29T21:12:20.421Z,86.35
2019-04-29T21:14:51.640Z,85.95
2019-04-29T21:17:29.400Z,85.29
2019-04-29T21:19:53.705Z,85.77
2019-04-29T21:22:25.926Z,85.63
2019-04-29T21:24:55.311Z,85.42
2019-04-29T21:27:26.019Z,85.24
2019-04-29T21:29:56.075Z,85.27
2019-04-29T21:32:26.044Z,85.72
2019-04-29T21:35:21.073Z,85.77
2019-04-29T21:38:09.947Z,86.15
2019-04-29T21:40:46.350Z,85.69
2019-04-29T21:43:19.963Z,85.01
2019-04-29T21:45:49.963Z,84.86
2019-04-29T21:48:25.652Z,85.42
2019-04-29T21:50:51.487Z,86.07
2019-04-29T21:53:21.394Z,85.76
2019-04-29T21:55:51.225Z,85.80
2019-04-29T21:58:21.046Z,85.95
2019-04-29T22:00:55.930Z,85.87
2019-04-29T22:03:26.586Z,85.94
2019-04-29T22:05:55.608Z,85.96
2019-04-29T22:08:29.821Z,86.10
2019-04-29T22:11:04.642Z,86.46
2019-04-29T22:13:30.633Z,86.50
2019-04-29T22:16:01.134Z,86.01
2019-04-29T22:18:31.474Z,85.78
2019-04-29T22:21:01.377Z,85.83
2019-04-29T22:23:31.379Z,85.93
2019-04-29T22:26:01.335Z,85.78
2019-04-29T22:28:31.180Z,86.01
2019-04-29T22:31:01.116Z,86.34
2019-04-29T22:33:34.853Z,86.27
2019-04-29T22:36:02.663Z,86.73
2019-04-29T22:38:32.672Z,87.03
2019-04-29T22:41:05.098Z,87.08
2019-04-29T22:43:44.620Z,87.20
2019-04-29T22:46:17.287Z,87.58
2019-04-29T22:48:48.728Z,87.39
2019-04-29T22:51:19.029Z,87.49
2019-04-29T22:53:49.009Z,87.87
2019-04-29T22:56:18.989Z,87.64
2019-04-29T22:58:48.865Z,87.34
2019-04-29T23:01:18.694Z,87.91
2019-04-29T23:03:48.604Z,87.02
2019-04-29T23:06:18.607Z,87.55
2019-04-29T23:08:48.610Z,86.82
2019-04-29T23:11:18.523Z,87.00
2019-04-29T23:13:49.107Z,87.75
2019-04-29T23:16:18.961Z,87.33
2019-04-29T23:18:48.855Z,87.02
2019-04-29T23:21:43.172Z,87.68
2019-04-29T23:24:17.567Z,87.47
2019-04-29T23:26:47.594Z,87.54
2019-04-29T23:29:17.575Z,87.14
2019-04-29T23:31:47.567Z,87.07
2019-04-29T23:34:17.493Z,86.99
2019-04-29T23:36:48.856Z,87.45
2019-04-29T23:39:19.102Z,87.33
2019-04-29T23:41:48.972Z,87.60
2019-04-29T23:44:18.771Z,87.46
2019-04-29T23:46:48.613Z,87.80
2019-04-29T23:49:18.468Z,87.44
2019-04-29T23:51:48.380Z,87.54
2019-04-29T23:54:18.231Z,86.64
2019-04-29T23:57:07.790Z,87.06
2019-04-29T23:59:39.179Z,87.51
